Latest Weather Observations for Curtin

IDW60801

Issued at 10:33 am WST Sunday 24 July 2016 (issued every 30 minutes, with the page automatically refreshed every 10 minutes)

About weather observations | Map of weather stations | Latest weather observations for WA | Other Formats
Station Details ID: 003080 Name: CURTIN AERO Lat: -17.58 Lon: 123.83 Height: 77.5 m
Data from the previous 72 hours. | See also: Recent months at Curtin
Date/Time
WST
Temp
°C
App
Temp
°C
Dew
Point
°C
Rel
Hum
%
Delta-T
°C
Wind Press
QNH
hPa
Press
MSL
hPa
Rain since
9am
mm
Dir  Spd
km/h
Gust
km/h
Spd
kts
Gust
kts
24/10:30am 29.9 24.9 6.5 23 12.5 ESE 22 35 12 19 1014.7 1014.3 0.0
24/10:00am 28.5 23.5 6.6 25 11.6 SE 22 30 12 16 1015.2 1014.8 0.0
24/09:30am 27.6 21.8 6.4 26 11.2 SE 26 39 14 21 1015.3 1014.9 0.0
24/09:00am 27.0 20.9 6.4 27 10.8 SE 28 39 15 21 1015.3 1014.9 0.0
24/08:30am 25.3 19.1 6.0 29 10.0 SE 28 41 15 22 1015.1 1014.7 0.0
24/08:00am 23.9 18.0 5.8 31 9.2 SE 26 39 14 21 1015.0 1014.6 0.0
24/07:30am 22.2 16.6 5.6 34 8.3 SE 24 33 13 18 1014.9 1014.5 0.0
24/07:00am 21.3 16.0 5.2 35 8.0 SE 22 30 12 16 1014.5 1014.2 0.0
24/06:30am 20.7 15.9 5.5 37 7.5 SSE 20 28 11 15 1014.4 1014.1 0.0
24/06:00am 20.8 16.0 5.6 37 7.6 SSE 20 28 11 15 1014.1 1013.8 0.0
24/05:30am 20.9 16.3 5.7 37 7.6 SSE 19 24 10 13 1013.7 1013.4 0.0
24/05:00am 21.4 16.8 5.7 36 7.9 SSE 19 26 10 14 1013.1 1012.8 0.0
24/04:30am 21.8 17.0 5.7 35 8.1 SSE 20 28 11 15 1012.8 1012.5 0.0
24/04:00am 22.2 17.5 6.0 35 8.2 SE 20 30 11 16 1012.5 1012.2 0.0
24/03:30am 22.3 17.6 6.1 35 8.2 SSE 20 30 11 16 1012.5 1012.2 0.0
24/03:00am 22.3 17.6 6.1 35 8.2 SSE 20 26 11 14 1012.3 1012.0 0.0
24/02:30am 22.7 18.2 6.0 34 8.5 SSE 19 24 10 13 1012.0 1011.7 0.0
24/02:00am 22.8 18.7 6.1 34 8.5 SSE 17 24 9 13 1012.0 1011.7 0.0
24/01:30am 23.4 19.2 5.8 32 8.9 SE 17 20 9 11 1011.9 1011.6 0.0
24/01:00am 23.7 19.9 6.0 32 9.1 SE 15 20 8 11 1012.0 1011.7 0.0
24/12:30am 24.4 19.8 5.7 30 9.5 SE 19 24 10 13 1012.2 1011.9 0.0
24/12:00am 24.2 20.1 6.0 31 9.3 SE 17 22 9 12 1012.3 1012.0 0.0
 
Date/Time
WST
Temp
°C
App
Temp
°C
Dew
Point
°C
Rel
Hum
%
Delta-T
°C
Wind Press
QNH
hPa
Press
MSL
hPa
Rain since
9am
mm
Dir  Spd
km/h
Gust
km/h
Spd
kts
Gust
kts
23/11:30pm 24.7 20.9 6.0 30 9.6 SSE 15 19 8 10 1012.2 1011.9 0.0
23/11:00pm 25.6 21.5 6.3 29 10.0 SSE 17 20 9 11 1012.3 1012.0 0.0
23/10:30pm 25.0 21.2 5.7 29 9.9 SSE 15 19 8 10 1012.4 1012.1 0.0
23/10:00pm 25.6 22.7 6.3 29 10.0 SE 11 13 6 7 1012.4 1012.1 0.0
23/09:30pm 25.8 22.4 5.9 28 10.3 SE 13 15 7 8 1012.5 1012.2 0.0
23/09:00pm 26.1 23.1 6.2 28 10.4 SSE 11 15 6 8 1012.4 1012.1 0.0
23/08:30pm 26.1 23.0 5.7 27 10.5 SSE 11 15 6 8 1012.3 1012.0 0.0
23/08:00pm 26.9 23.5 5.8 26 11.0 SSE 13 17 7 9 1012.0 1011.7 0.0
23/07:30pm 26.7 23.7 6.2 27 10.7 SSE 11 15 6 8 1011.7 1011.4 0.0
23/07:00pm 23.2 20.2 4.2 29 9.4 SSE 9 11 5 6 1011.4 1011.1 0.0
23/06:30pm 28.0 25.3 5.6 24 11.7 SSE 9 11 5 6 1011.0 1010.7 0.0
23/06:00pm 28.8 25.7 5.6 23 12.2 S 11 13 6 7 1010.7 1010.4 0.0
23/05:30pm 30.8 27.3 5.3 20 13.4 SSE 13 15 7 8 1010.5 1010.2 0.0
23/05:00pm 33.1 29.8 4.8 17 15.0 ESE 11 17 6 9 1010.2 1009.9 0.0
23/04:30pm 33.9 31.0 4.6 16 15.5 ESE 9 15 5 8 1010.1 1009.8 0.0
23/04:00pm 34.2 31.9 4.8 16 15.7 SE 6 11 3 6 1010.1 1009.8 0.0
23/03:30pm 34.3 30.9 4.0 15 15.9 SE 11 19 6 10 1010.2 1009.9 0.0
23/03:00pm 34.1 30.4 4.7 16 15.6 SSE 13 19 7 10 1010.4 1010.1 0.0
23/02:30pm 34.2 30.9 4.8 16 15.7 E 11 22 6 12 1010.6 1010.3 0.0
23/02:00pm 33.9 31.4 4.6 16 15.5 SE 7 15 4 8 1010.9 1010.6 0.0
23/01:30pm 34.1 32.0 5.6 17 15.4 ENE 6 15 3 8 1011.3 1011.0 0.0
23/01:00pm 34.1 31.0 5.6 17 15.4 N 11 19 6 10 1011.8 1011.5 0.0
23/12:30pm 33.6 29.8 6.0 18 14.9 E 15 22 8 12 1012.2 1011.9 0.0
23/12:00pm 33.4 30.0 5.9 18 14.8 ENE 13 19 7 10 1012.6 1012.3 0.0
23/11:30am 32.7 30.3 6.8 20 14.1 NNE 9 20 5 11 1013.0 1012.7 0.0
23/11:00am 32.3 30.5 7.9 22 13.5 NE 7 13 4 7 1013.6 1013.3 0.0
23/10:30am 31.1 28.8 7.5 23 12.9 ESE 9 15 5 8 1014.1 1013.8 0.0
23/10:00am 30.1 27.9 7.9 25 12.2 ESE 9 17 5 9 1014.3 1014.0 0.0
23/09:30am 28.6 24.9 7.8 27 11.3 SE 17 20 9 11 1014.5 1014.2 0.0
23/09:00am 27.7 24.5 8.6 30 10.5 ESE 15 20 8 11 1014.5 1014.2 0.0
23/08:30am 26.0 22.2 7.6 31 9.8 ESE 17 26 9 14 1014.4 1014.1 0.0
23/08:00am 24.9 21.2 8.0 34 9.0 SE 17 24 9 13 1013.9 1013.6 0.0
23/07:30am 22.5 18.7 7.5 38 7.8 SE 17 24 9 13 1013.5 1013.2 0.0
23/07:00am 20.8 17.3 7.4 42 6.9 SE 15 19 8 10 1013.3 1013.0 0.0
23/06:30am 20.0 16.4 6.7 42 6.7 SE 15 20 8 11 1013.0 1012.7 0.0
23/06:00am 20.5 16.5 6.5 40 7.1 SE 17 22 9 12 1012.4 1012.1 0.0
23/05:30am 20.9 16.8 6.1 38 7.4 SE 17 20 9 11 1012.2 1011.9 0.0
23/05:00am 21.9 18.2 6.2 36 8.0 ESE 15 20 8 11 1011.7 1011.4 0.0
23/04:30am 20.6 17.6 6.2 39 7.2 SE 11 13 6 7 1011.7 1011.4 0.0
23/04:00am 21.3 17.8 5.6 36 7.8 SSE 13 17 7 9 1011.9 1011.6 0.0
23/03:30am 23.0 19.7 6.3 34 8.5 ESE 13 19 7 10 1011.7 1011.4 0.0
23/03:00am 23.3 19.6 6.1 33 8.8 SE 15 20 8 11 1011.9 1011.6 0.0
23/02:30am 22.8 19.8 6.1 34 8.5 SE 11 15 6 8 1012.0 1011.7 0.0
23/02:00am 23.1 19.8 6.4 34 8.6 SE 13 17 7 9 1011.9 1011.6 0.0
23/01:30am 22.5 19.2 6.3 35 8.3 SSE 13 15 7 8 1012.1 1011.8 0.0
23/01:00am 22.7 19.4 6.5 35 8.3 SSE 13 15 7 8 1012.3 1012.0 0.0
23/12:30am 23.2 20.2 6.1 33 8.7 SSE 11 13 6 7 1012.4 1012.1 0.0
23/12:00am 25.0 21.8 6.7 31 9.6 SE 13 15 7 8 1012.4 1012.1 0.0
 
Date/Time
WST
Temp
°C
App
Temp
°C
Dew
Point
°C
Rel
Hum
%
Delta-T
°C
Wind Press
QNH
hPa
Press
MSL
hPa
Rain since
9am
mm
Dir  Spd
km/h
Gust
km/h
Spd
kts
Gust
kts
22/11:30pm 25.0 21.8 6.7 31 9.6 SE 13 17 7 9 1012.5 1012.2 0.0
22/11:00pm 25.5 22.6 6.7 30 9.8 SE 11 15 6 8 1012.5 1012.2 0.0
22/10:30pm 25.9 23.0 6.5 29 10.1 SE 11 15 6 8 1012.7 1012.4 0.0
22/10:00pm 26.2 23.3 6.3 28 10.4 ESE 11 13 6 7 1012.7 1012.4 0.0
22/09:30pm 26.3 23.3 5.8 27 10.6 ESE 11 13 6 7 1012.5 1012.2 0.0
22/09:00pm 27.2 24.2 6.0 26 11.1 SE 11 15 6 8 1012.3 1012.0 0.0
22/08:30pm 27.3 24.3 6.1 26 11.1 ESE 11 15 6 8 1012.3 1012.0 0.0
22/08:00pm 26.5 23.5 6.0 27 10.7 SE 11 13 6 7 1012.1 1011.8 0.0
22/07:30pm 27.2 24.2 6.0 26 11.1 SE 11 15 6 8 1011.8 1011.5 0.0
22/07:00pm 28.0 24.7 6.2 25 11.5 SE 13 15 7 8 1011.4 1011.1 0.0
22/06:30pm 28.3 25.3 5.8 24 11.8 SE 11 15 6 8 1011.1 1010.8 0.0
22/06:00pm 29.2 26.6 6.0 23 12.3 SE 9 11 5 6 1010.7 1010.4 0.0
22/05:30pm 31.0 28.0 6.1 21 13.3 SE 11 13 6 7 1010.3 1010.0 0.0
22/05:00pm 32.6 28.8 6.0 19 14.3 ESE 15 19 8 10 1010.2 1009.9 0.0
22/04:30pm 33.5 30.1 5.9 18 14.9 SE 13 20 7 11 1010.1 1009.8 0.0
22/04:00pm 34.1 31.4 5.6 17 15.4 S 9 13 5 7 1010.0 1009.7 0.0
22/03:30pm 34.1 30.4 4.7 16 15.6 ESE 13 20 7 11 1010.1 1009.8 0.0
22/03:00pm 34.0 29.6 4.6 16 15.6 SE 17 24 9 13 1010.2 1009.9 0.0
22/02:30pm 33.9 29.1 4.6 16 15.5 SE 19 30 10 16 1010.4 1010.1 0.0
22/02:00pm 33.9 29.1 5.4 17 15.3 ESE 20 43 11 23 1010.5 1010.2 0.0
22/01:30pm 33.7 29.4 5.3 17 15.2 SE 17 26 9 14 1011.0 1010.7 0.0
22/01:00pm 33.3 28.6 5.0 17 15.1 SE 19 28 10 15 1011.4 1011.1 0.0
22/12:30pm 33.2 29.0 5.7 18 14.8 SE 17 28 9 15 1011.9 1011.6 0.0
22/12:00pm 32.9 28.8 6.2 19 14.4 ESE 17 24 9 13 1012.5 1012.2 0.0
22/11:30am 32.5 28.9 6.7 20 14.0 E 15 24 8 13 1013.2 1012.9 0.0
22/11:00am 32.0 27.7 7.0 21 13.6 ESE 19 30 10 16 1013.6 1013.3 0.0
22/10:30am 31.4 27.1 7.1 22 13.2 ESE 19 30 10 16 1013.9 1013.6 0.0
22/10:00am 30.6 26.8 7.7 24 12.5 SE 17 24 9 13 1014.2 1013.9 0.0
22/09:30am 29.2 25.0 8.3 27 11.5 SSE 20 26 11 14 1014.8 1014.4 0.0
22/09:00am 28.4 24.4 9.2 30 10.7 SSE 20 26 11 14 1014.9 1014.5 0.0
22/08:30am 26.6 22.3 9.5 34 9.5 SSE 22 28 12 15 1014.9 1014.5 0.0
22/08:00am 24.6 20.8 9.7 39 8.2 S 20 26 11 14 1014.7 1014.3 0.0
22/07:30am 22.1 18.8 9.6 45 6.8 S 17 20 9 11 1014.5 1014.2 0.0
22/07:00am 20.2 16.8 9.2 49 5.8 S 17 19 9 10 1014.3 1014.0 0.0
22/06:30am 17.9 14.8 9.0 56 4.6 S 15 17 8 9 1014.0 1013.7 0.0
22/06:00am 17.5 14.5 9.2 58 4.3 S 15 17 8 9 1013.9 1013.6 0.0
22/05:30am 18.0 14.3 9.6 58 4.4 S 19 20 10 11 1013.8 1013.5 0.0
22/05:00am 18.2 15.1 10.3 60 4.2 SSW 17 20 9 11 1013.6 1013.3 0.0
22/04:30am 18.1 15.1 10.5 61 4.1 SSW 17 19 9 10 1013.4 1013.1 0.0
22/04:00am 18.0 15.9 11.1 64 3.7 SSW 13 15 7 8 1013.5 1013.2 0.0
22/03:30am 17.0 15.2 10.8 67 3.3 SSW 11 13 6 7 1013.5 1013.2 0.0
22/03:00am 16.3 14.6 9.9 66 3.4 SSW 9 11 5 6 1013.6 1013.3 0.0
22/02:30am 17.3 15.3 10.2 63 3.8 SW 11 11 6 6 1013.6 1013.3 0.0
22/02:00am 17.7 15.7 10.1 61 4.0 SW 11 13 6 7 1013.7 1013.4 0.0
22/01:30am 18.8 17.5 11.1 61 4.2 SW 9 11 5 6 1013.7 1013.4 0.0
22/01:00am 15.3 13.9 9.0 66 3.2 SW 6 7 3 4 1014.1 1013.8 0.0
22/12:30am 17.1 15.7 9.5 61 4.0 SW 7 9 4 5 1014.3 1014.0 0.0
22/12:00am 17.5 16.4 10.1 62 3.9 SW 6 7 3 4 1014.3 1014.0 0.0
 
Date/Time
WST
Temp
°C
App
Temp
°C
Dew
Point
°C
Rel
Hum
%
Delta-T
°C
Wind Press
QNH
hPa
Press
MSL
hPa
Rain since
9am
mm
Dir  Spd
km/h
Gust
km/h
Spd
kts
Gust
kts
21/11:30pm 19.1 17.8 10.1 56 4.8 SW 7 9 4 5 1014.1 1013.8 0.0
21/11:00pm 20.4 19.0 10.8 54 5.3 SSW 9 11 5 6 1014.1 1013.8 0.0
21/10:30pm 20.2 18.7 9.2 49 5.8 SW 7 9 4 5 1014.0 1013.7 0.0
21/10:00pm 22.1 19.9 9.3 44 6.9 WSW 11 15 6 8 1014.0 1013.7 0.0
21/09:30pm 19.2 17.7 9.1 52 5.3 SW 7 7 4 4 1013.7 1013.4 0.0
21/09:00pm 19.5 18.0 9.1 51 5.5 SW 7 7 4 4 1013.5 1013.2 0.0
21/08:30pm 19.9 18.4 9.2 50 5.7 SW 7 7 4 4 1013.2 1012.9 0.0
21/08:00pm 20.2 18.8 8.8 48 6.0 SSW 6 7 3 4 1013.2 1012.9 0.0
21/07:30pm 20.6 19.0 8.6 46 6.3 SW 7 11 4 6 1013.0 1012.7 0.0
21/07:00pm 22.9 21.2 8.2 39 7.8 WNW 7 9 4 5 1012.5 1012.2 0.0
21/06:30pm 25.2 23.3 9.1 36 8.8 NW 9 11 5 6 1012.2 1011.9 0.0
21/06:00pm 26.3 24.3 8.8 33 9.6 NW 9 9 5 5 1011.8 1011.5 0.0
21/05:30pm 28.4 26.5 9.2 30 10.7 NNW 9 13 5 7 1011.3 1011.0 0.0
21/05:00pm 30.6 28.3 8.9 26 12.1 NW 11 15 6 8 1011.0 1010.7 0.0
21/04:30pm 32.1 30.7 9.6 25 12.8 NNW 7 11 4 6 1010.7 1010.4 0.0
21/04:00pm 33.0 30.8 5.5 18 14.7 N 6 9 3 5 1010.6 1010.3 0.0
21/03:30pm 33.2 30.9 5.7 18 14.8 N 7 9 4 5 1010.7 1010.4 0.0
21/03:00pm 32.7 30.1 6.1 19 14.4 WNW 9 15 5 8 1010.9 1010.6 0.0
21/02:30pm 32.8 29.8 6.2 19 14.4 E 11 17 6 9 1011.1 1010.8 0.0
21/02:00pm 32.4 30.1 5.8 19 14.3 NNW 7 13 4 7 1011.3 1011.0 0.0
21/01:30pm 32.3 29.4 6.5 20 14.0 NE 11 20 6 11 1011.7 1011.4 0.0
21/01:00pm 31.5 28.6 6.5 21 13.5 E 11 22 6 12 1012.2 1011.9 0.0
21/12:30pm 31.6 28.7 6.6 21 13.5 NE 11 19 6 10 1012.7 1012.4 0.0
21/12:00pm 31.1 28.1 7.5 23 12.9 ENE 13 20 7 11 1013.2 1012.9 0.0
21/11:30am 30.6 27.6 7.7 24 12.5 E 13 20 7 11 1013.8 1013.5 0.0
21/11:00am 29.8 27.6 9.3 28 11.5 ESE 11 19 6 10 1014.4 1014.1 0.0

Other Formats:

Comma delimited format used in spreadsheet applications
http://www.bom.gov.au/fwo/IDW60801/IDW60801.94204.axf

JavaScript Object Notation format (JSON) in row-major order
http://www.bom.gov.au/fwo/IDW60801/IDW60801.94204.json